x

Nantucket Sound (44020) Wave Buoy

12:50am - Sun 29th Mar 2015 All times are EDT. -4 hours from GMT.

  • Sig Wave height 2.0ft
  • Swell Direction
  • Peak Period 4s
  • Average Period 4s
  • Wind
    9mph, 11mph gusts
  • Sea Temp 37°f
  • 空気 Temp 36°f
  • Sea Pressure 1016mb
  • Nantucket Sound
  • Nantucket Sound

More Historic Weather Station data

Upgrade to MSW Pro to gain access to the past 30 days of data for over 8000 Wavebouys and Weather Stations around the globe.

Join Pro

Comparision Forecast

View Surf forecast
   
Sun 03/29 12:50am 2ft 4s 4s 9 11 mph 1016mb 37f 36f
Sat 03/28 11:50pm 2.5ft 9s 4s 7 9 mph 1015.4mb 37f 36f
10:50pm 2.5ft 5s 4s 11 13 mph 1014.9mb 37f 36f
9:50pm 3ft 5s 4s 11 13 mph 1014.2mb 36f 35f
8:50pm 2.5ft 8s 4s 16 18 mph 1013.2mb 36f 35f
7:50pm 3ft 4s 4s 16 20 mph 1011.8mb 36f 35f
6:50pm 3.5ft 4s 4s 18 22 mph 1010.4mb 36f 35f
5:50pm 3.5ft 4s 4s 22 27 mph 1008.2mb 36f 35f
4:50pm 4ft 4s 4s 25 29 mph 1006.7mb 36f 35f
3:50pm 3.5ft 4s 4s 27 34 mph 1004.7mb 36f 35f
2:50pm 3.5ft 4s 4s 27 34 mph 1003.7mb 36f 35f
1:50pm 3.5ft 4s 4s 27 34 mph 1003.8mb 37f 35f
12:50pm 2.5ft 3s 4s 22 27 mph 1003.8mb 37f 37f
11:50am 2.5ft 6s 4s 18 22 mph 1004.2mb 37f 38f
10:50am 2ft 5s 4s 16 18 mph 1004.6mb 37f 38f
9:50am 2ft 12s 4s 11 13 mph 1004.3mb 36f 38f
8:50am 2ft 12s 4s 16 18 mph 1003.4mb 36f 37f
7:50am 2ft 12s 4s 13 16 mph 1004mb 36f 37f
6:50am 2ft 11s 4s 11 13 mph 1004.6mb 36f 37f
5:50am 1.6ft 11s 4s 13 16 mph 1004.1mb 36f 37f
4:50am 1.6ft 11s 5s 13 16 mph 1004.7mb 36f 38f
3:50am 1.3ft 11s 4s 9
mph
1005.7mb 36f 37f
2:50am 1.3ft 6s 4s 4 7 mph 1006.5mb 36f 37f
1:50am 1.3ft 6s 4s 7 9 mph 1006.9mb 36f 37f
12:50am 1.3ft 11s 5s 7
mph
1007.1mb 36f 37f
Fri 03/27 11:50pm 1.3ft 5s 5s 7
mph
1007.3mb 36f 37f
10:50pm 1.3ft 5s 4s 7
mph
1007.3mb 36f 37f
9:50pm 1.3ft 5s 4s 7 9 mph 1006.7mb 36f 37f
8:50pm 1.3ft 5s 4s 9 11 mph 1006.6mb 36f 37f
7:50pm 1.6ft 5s 4s 9
mph
1006.2mb 36f 37f
6:50pm 2ft 5s 4s 11
mph
1006.6mb 35f 38f
5:50pm 1.6ft 5s 4s 9 11 mph 1005.6mb 35f 38f
4:50pm 1.3ft 5s 4s 13
mph
1004.8mb 35f 38f
3:50pm 1.3ft 5s 4s 9 11 mph 1004.3mb 36f 37f
2:50pm 1.6ft 4s 4s 9 11 mph 1004.5mb 36f 38f
1:50pm 1.6ft 4s 4s 11 13 mph 1004.5mb 36f 39f
12:50pm 1.6ft 4s 3s 11 16 mph 1004.8mb 36f 39f
11:50am 1.6ft 3s 3s 11 13 mph 1005.3mb 36f 38f
10:50am 2ft 3s 3s 11
mph
1005.8mb 36f 38f
9:50am 2ft 3s 3s 13 16 mph 1005.3mb 36f 38f
8:50am 1.6ft 3s 3s 13 16 mph 1005mb 36f 38f
7:50am 1.3ft 3s 3s 13 16 mph 1004.9mb 36f 38f
6:50am 1.3ft 3s 3s 13 16 mph 1003.8mb 35f 38f
5:50am 1.3ft 5s 4s 13 16 mph 1002.9mb 35f 38f
4:50am 1.3ft 9s 4s 11 13 mph 1002.1mb 35f 38f
3:50am 1.3ft 4s 4s 7
mph
1002.1mb 35f 38f
2:50am 1.6ft 4s 4s 2 4 mph 1002.9mb 35f 39f
1:50am 2ft 4s 4s 11 13 mph 1002.8mb 35f 41f
12:50am 2.5ft 4s 3s 18 22 mph 1002.1mb 36f 45f
Thu 03/26 11:50pm 2.5ft 4s 4s 25 29 mph 1001.8mb 36f 46f
10:50pm 3ft 4s 4s 25 31 mph 1002.8mb 36f 45f
9:50pm 3ft 4s 4s 27 31 mph 1003.8mb 36f 44f
8:50pm 3ft 4s 4s 25 29 mph 1004.6mb 36f 44f
7:50pm 3.5ft 4s 4s 25 29 mph 1004.9mb 36f 44f
6:50pm 3.5ft 4s 4s 29 34 mph 1005mb 35f 45f
5:50pm 2.5ft 4s 4s 27 29 mph 1005.5mb 35f 45f
4:50pm 1.6ft 3s 3s 25 29 mph 1006.1mb 35f 44f
3:50pm 1.3ft 3s 3s 18 22 mph 1008.2mb 35f 43f
2:50pm 1ft 3s 3s 16 18 mph 1009.5mb 35f 43f
1:50pm 1ft 2s 3s 18 20 mph 1010.9mb 35f 41f
12:50pm 1ft 6s 3s 11 13 mph 1012.9mb 35f 40f
11:50am 1ft 6s 3s 13 16 mph 1014mb 36f 39f
10:50am 1ft 2s 3s 13 16 mph 1015mb 36f 40f
9:50am 1ft 6s 3s 11 13 mph 1015.6mb 36f 40f
8:50am 1.3ft 3s 3s 18 20 mph 1015.4mb 36f 41f
7:50am 1.6ft 3s 3s 13 16 mph 1016.3mb 35f 40f
6:50am 2ft 4s 3s 16 18 mph 1016.4mb 35f 41f
5:50am 2.5ft 4s 3s 20 22 mph 1016.4mb 35f 42f
4:50am 2.5ft 4s 4s 22 29 mph 1016.4mb 35f 42f
3:50am 2.5ft 4s 3s 25 27 mph 1017.2mb 35f 41f
2:50am 2ft 4s 3s 22 29 mph 1018.4mb 35f 42f
1:50am 1.6ft 3s 3s 16 20 mph 1020.4mb 35f 40f
12:50am 1.3ft 3s 3s 16 18 mph 1022.2mb 35f 40f
Wed 03/25 11:50pm 1ft 3s 3s 16 20 mph 1023.6mb 35f 39f
10:50pm 1.3ft 3s 3s 16 18 mph 1024.6mb 36f 38f
9:50pm 1ft 3s 3s 16 18 mph 1025.3mb 36f 38f
8:50pm 0.7ft  -  3s 16 18 mph 1025.6mb 35f 37f
7:50pm 0.7ft  -  3s 13 16 mph 1026.8mb 35f 36f
6:50pm 0.7ft  -  3s 11 13 mph 1027.3mb 35f 36f
5:50pm 0.7ft  -  3s 11
mph
1027.3mb 35f 36f
4:50pm 0.3ft  -  4s 11 13 mph 1028.1mb 35f 36f
3:50pm 0.3ft  -  5s 11 13 mph 1028.4mb 35f 36f
2:50pm 0.3ft  -  4s 9 11 mph 1028.9mb 35f 36f
1:50pm 0.3ft  -  4s 9 11 mph 1029.9mb 35f 36f
12:50pm 0.3ft  -  4s 7 9 mph 1030.3mb 35f 35f
11:50am 0.3ft  -  3s 7 9 mph 1030.9mb 35f 35f
10:50am 0.7ft  -  3s 4
mph
1030.5mb 36f 35f
9:50am 0.7ft  -  3s 4
mph
1030.3mb 35f 35f
8:50am 0.7ft  -  3s 7 9 mph 1029.8mb 35f 34f
7:50am 1ft 3s 3s 11 13 mph 1030.2mb 35f 34f
6:50am 0.7ft  -  3s 9 11 mph 1029.8mb 35f 34f